createdAt,value
2022-11-30T00:00:12.722Z,9.00
2022-11-30T00:02:42.812Z,9.00
2022-11-30T00:05:11.239Z,9.00
2022-11-30T00:07:39.713Z,9.00
2022-11-30T00:10:09.895Z,9.00
2022-11-30T00:12:38.012Z,9.00
2022-11-30T00:15:06.680Z,9.00
2022-11-30T00:17:35.339Z,8.90
2022-11-30T00:20:05.266Z,8.90
2022-11-30T00:22:33.897Z,9.00
2022-11-30T00:25:03.323Z,9.00
2022-11-30T00:27:32.373Z,8.90
2022-11-30T00:30:01.303Z,8.90
2022-11-30T00:32:30.117Z,9.00
2022-11-30T00:34:58.812Z,9.00
2022-11-30T00:37:28.923Z,8.90
2022-11-30T00:39:57.505Z,8.90
2022-11-30T00:42:26.125Z,9.00
2022-11-30T00:44:54.744Z,8.90
2022-11-30T00:47:23.328Z,9.00
2022-11-30T00:49:51.964Z,8.90
2022-11-30T00:52:20.650Z,8.90
2022-11-30T00:54:50.159Z,8.90
2022-11-30T00:57:18.406Z,8.90
2022-11-30T00:59:46.517Z,8.90
2022-11-30T01:02:15.178Z,8.90
2022-11-30T01:04:43.428Z,8.90
2022-11-30T01:07:11.695Z,9.00
2022-11-30T01:09:40.312Z,8.90
2022-11-30T01:12:09.936Z,8.90
2022-11-30T01:14:38.581Z,8.90
2022-11-30T01:17:06.768Z,8.90
2022-11-30T01:19:35.419Z,9.00
2022-11-30T01:22:03.542Z,9.00
2022-11-30T01:24:32.105Z,8.90
2022-11-30T01:27:00.714Z,8.90
2022-11-30T01:29:30.243Z,8.90
2022-11-30T01:31:58.891Z,8.90
2022-11-30T01:34:26.993Z,8.90
2022-11-30T01:36:55.235Z,8.90
2022-11-30T01:39:23.883Z,8.90
2022-11-30T01:41:52.477Z,8.90
2022-11-30T01:44:53.808Z,8.90
2022-11-30T01:47:28.181Z,8.90
2022-11-30T01:50:00.413Z,8.90
2022-11-30T01:52:46.486Z,8.90
2022-11-30T01:55:20.528Z,8.90
2022-11-30T01:57:53.085Z,8.90
2022-11-30T02:00:21.824Z,8.90
2022-11-30T02:02:58.392Z,8.90
2022-11-30T02:05:27.925Z,8.90
2022-11-30T02:07:58.440Z,8.90
2022-11-30T02:10:29.511Z,8.90
2022-11-30T02:13:34.709Z,8.90
2022-11-30T02:16:14.463Z,8.90
2022-11-30T02:18:53.297Z,8.90
2022-11-30T02:21:26.104Z,8.80
2022-11-30T02:24:21.117Z,8.80
2022-11-30T02:27:06.025Z,8.80
2022-11-30T02:29:40.478Z,8.80
2022-11-30T02:32:13.736Z,8.80
2022-11-30T02:34:45.704Z,8.80
2022-11-30T02:37:15.558Z,8.80
2022-11-30T02:39:44.623Z,8.80
2022-11-30T02:42:14.509Z,8.80
2022-11-30T02:44:47.759Z,8.80
2022-11-30T02:47:22.852Z,8.80
2022-11-30T02:49:57.290Z,8.80
2022-11-30T02:52:28.390Z,8.70
2022-11-30T02:55:01.444Z,8.70
2022-11-30T02:57:31.949Z,8.70
2022-11-30T03:00:03.594Z,8.70
2022-11-30T03:02:32.241Z,8.70
2022-11-30T03:05:01.003Z,8.70
2022-11-30T03:07:29.176Z,8.70
2022-11-30T03:09:57.950Z,8.60
2022-11-30T03:12:26.596Z,8.60
2022-11-30T03:14:55.447Z,8.60
2022-11-30T03:17:25.465Z,8.60
2022-11-30T03:19:53.576Z,8.60
2022-11-30T03:22:22.194Z,8.60
2022-11-30T03:24:50.908Z,8.60
2022-11-30T03:27:19.549Z,8.60
2022-11-30T03:29:47.675Z,8.60
2022-11-30T03:32:16.360Z,8.60
2022-11-30T03:34:46.165Z,8.60
2022-11-30T03:37:14.973Z,8.60
2022-11-30T03:39:43.615Z,8.60
2022-11-30T03:42:11.774Z,8.60
2022-11-30T03:44:40.376Z,8.60
2022-11-30T03:47:08.496Z,8.60
2022-11-30T03:49:36.650Z,8.60
2022-11-30T03:52:06.523Z,8.60
2022-11-30T03:54:35.131Z,8.60
2022-11-30T03:57:04.035Z,8.60
2022-11-30T03:59:32.170Z,8.60
2022-11-30T04:02:01.007Z,8.60
2022-11-30T04:04:29.263Z,8.60
2022-11-30T04:06:57.896Z,8.60
2022-11-30T04:09:27.905Z,8.60
2022-11-30T04:11:56.042Z,8.60
2022-11-30T04:14:24.704Z,8.60
2022-11-30T04:16:53.288Z,7.50
2022-11-30T04:19:21.889Z,8.60
2022-11-30T04:21:51.478Z,8.60
2022-11-30T04:24:20.178Z,8.50
2022-11-30T04:26:49.736Z,8.50
2022-11-30T04:29:18.351Z,8.50
2022-11-30T04:31:47.076Z,8.50
2022-11-30T04:34:15.855Z,8.50
2022-11-30T04:36:43.951Z,8.50
2022-11-30T04:39:12.549Z,8.50
2022-11-30T04:41:41.380Z,8.50
2022-11-30T04:44:11.785Z,8.50
2022-11-30T04:46:39.991Z,8.50
2022-11-30T04:49:08.807Z,8.50
2022-11-30T04:51:37.404Z,8.50
2022-11-30T04:54:06.249Z,8.50
2022-11-30T04:56:34.859Z,8.50
2022-11-30T04:59:03.224Z,8.50
2022-11-30T05:01:32.746Z,8.50
2022-11-30T05:04:01.493Z,8.50
2022-11-30T05:06:29.653Z,8.50
2022-11-30T05:08:58.334Z,8.50
2022-11-30T05:11:26.539Z,8.50
2022-11-30T05:13:54.656Z,8.50
2022-11-30T05:16:22.967Z,8.50
2022-11-30T05:18:52.569Z,8.50
2022-11-30T05:21:20.736Z,8.50
2022-11-30T05:23:49.368Z,8.50
2022-11-30T05:26:17.595Z,8.50
2022-11-30T05:28:46.217Z,8.50
2022-11-30T05:31:14.323Z,8.40
2022-11-30T05:33:43.024Z,8.40
2022-11-30T05:36:12.637Z,8.40
2022-11-30T05:38:40.742Z,8.40
2022-11-30T05:41:08.992Z,8.50
2022-11-30T05:43:37.136Z,8.50
2022-11-30T05:46:08.250Z,8.40
2022-11-30T05:48:36.742Z,8.40
2022-11-30T05:51:09.325Z,8.40
2022-11-30T05:53:39.127Z,8.50
2022-11-30T05:56:09.076Z,8.50
2022-11-30T05:58:37.809Z,8.40
2022-11-30T06:01:06.374Z,8.40
2022-11-30T06:03:37.002Z,8.40
2022-11-30T06:06:05.735Z,8.40
2022-11-30T06:08:33.876Z,8.40
2022-11-30T06:11:04.013Z,8.40
2022-11-30T06:13:32.733Z,8.40
2022-11-30T06:16:01.650Z,8.40
2022-11-30T06:18:30.393Z,8.30
2022-11-30T06:21:02.629Z,8.40
2022-11-30T06:23:31.034Z,8.40
2022-11-30T06:25:59.853Z,8.40
2022-11-30T06:28:30.022Z,8.40
2022-11-30T06:31:00.498Z,8.30
2022-11-30T06:33:29.436Z,8.40
2022-11-30T06:35:58.235Z,8.30
2022-11-30T06:38:26.981Z,8.30
2022-11-30T06:40:55.650Z,8.30
2022-11-30T06:43:23.752Z,8.30
2022-11-30T06:45:53.785Z,8.30
2022-11-30T06:48:23.043Z,8.30
2022-11-30T06:50:51.649Z,8.30
2022-11-30T06:53:20.302Z,8.30
2022-11-30T06:55:48.463Z,8.30
2022-11-30T06:58:17.169Z,8.30
2022-11-30T07:00:45.361Z,8.30
2022-11-30T07:03:15.483Z,8.30
2022-11-30T07:05:45.589Z,8.30
2022-11-30T07:08:15.685Z,8.30
2022-11-30T07:10:44.936Z,8.20
2022-11-30T07:13:14.109Z,8.20
2022-11-30T07:15:43.068Z,8.20
2022-11-30T07:18:11.898Z,8.20
2022-11-30T07:20:42.282Z,8.20
2022-11-30T07:23:28.330Z,8.20
2022-11-30T07:26:07.863Z,8.20
2022-11-30T07:28:38.036Z,8.20
2022-11-30T07:31:20.677Z,8.20
2022-11-30T07:33:50.171Z,8.20
2022-11-30T07:36:22.037Z,8.20
2022-11-30T07:38:50.252Z,8.20
2022-11-30T07:41:19.138Z,8.20
2022-11-30T07:43:47.813Z,8.20
2022-11-30T07:46:16.887Z,8.20
2022-11-30T07:48:46.939Z,8.30
2022-11-30T07:51:17.346Z,8.20
2022-11-30T07:53:46.898Z,8.30
2022-11-30T07:56:17.811Z,8.30
2022-11-30T07:58:46.807Z,8.30
2022-11-30T08:01:17.274Z,8.30
2022-11-30T08:03:46.288Z,8.40
2022-11-30T08:06:17.197Z,8.30
2022-11-30T08:08:47.541Z,8.30
2022-11-30T08:11:18.395Z,8.30
2022-11-30T08:13:47.328Z,8.40
2022-11-30T08:16:17.411Z,8.40
2022-11-30T08:18:46.329Z,8.40
2022-11-30T08:21:17.124Z,8.40
2022-11-30T08:23:49.438Z,8.40
2022-11-30T08:26:19.328Z,8.40
2022-11-30T08:28:49.984Z,8.40
2022-11-30T08:31:20.662Z,8.40
2022-11-30T08:33:49.564Z,8.40
2022-11-30T08:36:19.911Z,8.40
2022-11-30T08:38:49.799Z,8.40
2022-11-30T08:41:20.712Z,8.40
2022-11-30T08:43:49.803Z,8.40
2022-11-30T08:46:50.807Z,8.40
2022-11-30T08:49:24.917Z,8.40
2022-11-30T08:54:46.841Z,8.50
2022-11-30T08:57:16.246Z,8.50
2022-11-30T08:59:45.291Z,8.50
2022-11-30T09:02:18.117Z,8.50
2022-11-30T09:04:52.194Z,8.50
2022-11-30T09:07:20.909Z,8.50
2022-11-30T09:09:50.890Z,8.50
2022-11-30T09:12:19.007Z,8.50
2022-11-30T09:14:55.863Z,8.50
2022-11-30T09:17:26.120Z,8.50
2022-11-30T09:19:54.759Z,8.50
2022-11-30T09:22:23.327Z,8.50
2022-11-30T09:24:53.300Z,8.50
2022-11-30T09:27:22.103Z,8.40
2022-11-30T09:29:50.190Z,8.40
2022-11-30T09:32:18.776Z,8.40
2022-11-30T09:34:48.570Z,8.40
2022-11-30T09:37:22.688Z,8.40
2022-11-30T09:39:52.485Z,8.40
2022-11-30T09:42:35.219Z,8.40
2022-11-30T09:45:12.486Z,8.50
2022-11-30T09:47:59.216Z,8.40
2022-11-30T09:50:30.515Z,8.50
2022-11-30T09:53:03.476Z,8.50
2022-11-30T09:55:39.250Z,8.50
2022-11-30T09:58:09.053Z,8.50
2022-11-30T10:00:37.655Z,8.50
2022-11-30T10:03:07.320Z,8.50
2022-11-30T10:05:48.757Z,8.50
2022-11-30T10:08:29.836Z,8.50
2022-11-30T10:11:18.341Z,8.50
2022-11-30T10:13:58.419Z,8.50
2022-11-30T10:16:37.772Z,8.50
2022-11-30T10:19:14.448Z,8.50
2022-11-30T10:21:53.757Z,8.50
2022-11-30T10:24:39.614Z,8.50
2022-11-30T10:27:29.340Z,8.50
2022-11-30T10:30:01.729Z,8.50
2022-11-30T10:32:35.105Z,8.50
2022-11-30T10:35:15.010Z,8.50
2022-11-30T10:37:43.548Z,8.50
2022-11-30T10:40:16.905Z,8.50
2022-11-30T10:42:51.272Z,8.50
2022-11-30T10:45:23.315Z,8.50
2022-11-30T10:47:58.671Z,8.50
2022-11-30T10:50:30.429Z,8.50
2022-11-30T10:53:01.560Z,8.50
2022-11-30T10:55:33.143Z,8.50
2022-11-30T10:58:08.959Z,8.50
2022-11-30T11:00:37.040Z,8.50
2022-11-30T11:03:23.294Z,8.50
2022-11-30T11:06:06.544Z,8.40
2022-11-30T11:08:35.829Z,8.40
2022-11-30T11:11:05.135Z,8.40
2022-11-30T11:13:42.766Z,8.40
2022-11-30T11:16:13.943Z,8.40
2022-11-30T11:18:54.536Z,8.40
2022-11-30T11:21:25.141Z,8.40
2022-11-30T11:23:55.813Z,8.40
2022-11-30T11:26:26.360Z,8.40
2022-11-30T11:28:59.500Z,8.40
2022-11-30T11:31:37.972Z,8.40
2022-11-30T11:34:08.836Z,9.40
2022-11-30T11:36:38.215Z,8.40
2022-11-30T11:39:26.346Z,8.40
2022-11-30T11:41:54.937Z,8.40
2022-11-30T11:44:28.448Z,8.40
2022-11-30T11:47:00.033Z,8.40
2022-11-30T11:49:30.149Z,8.40
2022-11-30T11:52:03.215Z,8.40
2022-11-30T11:54:36.525Z,8.40
2022-11-30T11:57:05.447Z,8.40
2022-11-30T11:59:41.921Z,8.40
2022-11-30T12:02:25.342Z,8.40
2022-11-30T12:05:00.543Z,8.40
2022-11-30T12:07:34.392Z,8.40
2022-11-30T12:10:50.092Z,8.40
2022-11-30T12:13:14.517Z,8.40
2022-11-30T12:15:57.938Z,8.40
2022-11-30T12:18:35.473Z,8.40
2022-11-30T12:21:11.898Z,8.40
2022-11-30T12:24:04.275Z,8.40
2022-11-30T12:26:39.986Z,8.40
2022-11-30T12:29:24.707Z,8.30
2022-11-30T12:32:12.311Z,8.40
2022-11-30T12:34:53.752Z,8.40
2022-11-30T12:37:31.921Z,8.40
2022-11-30T12:40:10.834Z,8.40
2022-11-30T12:42:44.567Z,8.30
2022-11-30T12:45:20.402Z,8.30
2022-11-30T12:48:05.160Z,8.30
2022-11-30T12:50:48.671Z,8.30
2022-11-30T12:53:25.561Z,8.30
2022-11-30T12:56:05.024Z,8.30
2022-11-30T12:58:42.632Z,8.20
2022-11-30T13:01:22.053Z,8.20
2022-11-30T13:04:01.022Z,8.20
2022-11-30T13:06:34.764Z,8.20
2022-11-30T13:09:06.715Z,8.20
2022-11-30T13:11:38.471Z,8.20
2022-11-30T13:14:14.713Z,8.20
2022-11-30T13:16:44.789Z,8.20
2022-11-30T13:19:42.577Z,8.20
2022-11-30T13:22:17.316Z,8.20
2022-11-30T13:24:57.298Z,8.20
2022-11-30T13:27:31.482Z,8.20
2022-11-30T13:30:17.795Z,8.20
2022-11-30T13:32:57.914Z,8.20
2022-11-30T13:35:46.432Z,8.20
2022-11-30T13:38:36.371Z,8.20
2022-11-30T13:41:09.087Z,8.10
2022-11-30T13:43:42.765Z,8.20
2022-11-30T13:46:20.963Z,8.10
2022-11-30T13:48:50.002Z,8.20
2022-11-30T13:51:37.608Z,8.10
2022-11-30T13:54:41.551Z,8.10
2022-11-30T13:57:40.152Z,8.10
2022-11-30T14:00:42.092Z,8.20
2022-11-30T14:03:26.314Z,8.10
2022-11-30T14:05:55.437Z,8.10
2022-11-30T14:08:37.740Z,8.10
2022-11-30T14:11:42.774Z,8.10
2022-11-30T14:14:47.868Z,8.10
2022-11-30T14:17:20.190Z,8.10
2022-11-30T14:19:53.262Z,8.10
2022-11-30T14:22:22.066Z,8.10
2022-11-30T14:24:52.377Z,8.10
2022-11-30T14:27:26.206Z,8.00
2022-11-30T14:29:58.108Z,8.00
2022-11-30T14:32:36.203Z,8.00
2022-11-30T14:35:09.680Z,8.00
2022-11-30T14:37:46.674Z,8.00
2022-11-30T14:40:22.438Z,8.00
2022-11-30T14:42:52.458Z,8.00
2022-11-30T14:45:26.299Z,7.90
2022-11-30T14:48:05.468Z,8.00
2022-11-30T14:50:34.555Z,7.90
2022-11-30T14:53:18.929Z,7.90
2022-11-30T14:55:53.397Z,7.90
2022-11-30T14:58:27.044Z,7.90
2022-11-30T15:00:57.357Z,7.90
2022-11-30T15:03:29.561Z,7.90
2022-11-30T15:06:00.199Z,7.90
2022-11-30T15:08:36.224Z,7.80
2022-11-30T15:11:08.781Z,7.80
2022-11-30T15:13:41.051Z,7.80
2022-11-30T15:16:17.895Z,7.70
2022-11-30T15:18:46.470Z,7.70
2022-11-30T15:21:19.565Z,7.70
2022-11-30T15:23:51.143Z,7.70
2022-11-30T15:26:30.864Z,7.70
2022-11-30T15:29:01.880Z,7.70
2022-11-30T15:31:36.196Z,7.70
2022-11-30T15:34:05.622Z,7.60
2022-11-30T15:36:36.337Z,7.60
2022-11-30T15:39:07.448Z,7.60
2022-11-30T15:41:38.312Z,7.60
2022-11-30T15:44:06.560Z,7.60
2022-11-30T15:46:44.272Z,7.60
2022-11-30T15:49:21.005Z,7.60
2022-11-30T15:51:59.542Z,7.60
2022-11-30T15:54:47.909Z,7.60
2022-11-30T15:57:18.551Z,7.60
2022-11-30T16:00:03.964Z,7.60
2022-11-30T16:02:36.599Z,7.60
2022-11-30T16:05:24.462Z,7.60
2022-11-30T16:07:55.592Z,7.60
2022-11-30T16:10:26.772Z,7.60
2022-11-30T16:12:56.944Z,7.60
2022-11-30T16:15:27.231Z,7.50
2022-11-30T16:17:58.091Z,7.50
2022-11-30T16:20:29.803Z,7.50
2022-11-30T16:23:02.475Z,7.50
2022-11-30T16:25:33.985Z,7.50
2022-11-30T16:28:03.803Z,7.50
2022-11-30T16:30:34.755Z,7.50
2022-11-30T16:33:02.940Z,7.50
2022-11-30T16:35:37.360Z,7.50
2022-11-30T16:38:06.166Z,7.50
2022-11-30T16:40:38.773Z,7.50
2022-11-30T16:43:11.755Z,7.50
2022-11-30T16:45:47.756Z,7.50
2022-11-30T16:48:16.740Z,7.50
2022-11-30T16:50:45.698Z,7.50
2022-11-30T16:53:16.031Z,7.50
2022-11-30T16:55:44.910Z,7.50
2022-11-30T16:58:14.398Z,7.50
2022-11-30T17:00:43.148Z,7.50
2022-11-30T17:03:19.090Z,7.50
2022-11-30T17:05:47.263Z,7.40
2022-11-30T17:08:15.484Z,7.40
2022-11-30T17:10:47.255Z,7.40
2022-11-30T17:13:17.996Z,7.40
2022-11-30T17:15:46.975Z,7.40
2022-11-30T17:18:15.192Z,7.40
2022-11-30T17:20:43.969Z,7.40
2022-11-30T17:23:12.674Z,7.40
2022-11-30T17:25:40.792Z,7.40
2022-11-30T17:28:10.825Z,7.30
2022-11-30T17:30:43.489Z,7.30
2022-11-30T17:33:12.091Z,7.30
2022-11-30T17:35:43.725Z,7.30
2022-11-30T17:38:12.583Z,7.30
2022-11-30T17:40:42.402Z,7.30
2022-11-30T17:43:11.006Z,7.20
2022-11-30T17:45:42.365Z,7.20
2022-11-30T17:48:10.439Z,7.20
2022-11-30T17:50:39.974Z,7.20
2022-11-30T17:53:08.121Z,7.20
2022-11-30T17:55:36.781Z,7.20
2022-11-30T17:58:12.095Z,7.20
2022-11-30T18:00:40.399Z,7.20
2022-11-30T18:03:10.001Z,7.20
2022-11-30T18:05:48.792Z,7.20
2022-11-30T18:08:17.374Z,7.20
2022-11-30T18:10:47.798Z,7.10
2022-11-30T18:13:16.474Z,7.10
2022-11-30T18:15:44.752Z,7.20
2022-11-30T18:18:14.803Z,7.10
2022-11-30T18:20:43.825Z,7.10
2022-11-30T18:23:12.441Z,7.10
2022-11-30T18:25:43.359Z,7.10
2022-11-30T18:28:11.505Z,7.10
2022-11-30T18:30:39.882Z,7.10
2022-11-30T18:33:08.563Z,7.10
2022-11-30T18:35:38.120Z,7.10
2022-11-30T18:38:06.762Z,7.10
2022-11-30T18:40:35.256Z,7.10
2022-11-30T18:43:03.887Z,7.10
2022-11-30T18:45:33.865Z,7.10
2022-11-30T18:48:02.057Z,7.10
2022-11-30T18:50:30.600Z,7.10
2022-11-30T18:53:00.190Z,7.10
2022-11-30T18:55:28.675Z,7.10
2022-11-30T18:57:58.233Z,7.10
2022-11-30T19:00:26.354Z,7.10
2022-11-30T19:02:55.220Z,7.10
2022-11-30T19:05:36.451Z,7.10
2022-11-30T19:08:07.295Z,7.10
2022-11-30T19:10:36.766Z,7.10
2022-11-30T19:13:06.238Z,7.10
2022-11-30T19:15:38.849Z,7.00
2022-11-30T19:18:07.280Z,7.00
2022-11-30T19:20:39.970Z,7.00
2022-11-30T19:23:10.449Z,7.00
2022-11-30T19:25:38.539Z,7.00
2022-11-30T19:28:07.239Z,7.00
2022-11-30T19:30:35.380Z,7.00
2022-11-30T19:33:04.046Z,7.00
2022-11-30T19:35:32.139Z,7.00
2022-11-30T19:38:04.283Z,7.00
2022-11-30T19:40:34.037Z,7.00
2022-11-30T19:43:02.775Z,7.00
2022-11-30T19:45:31.438Z,7.00
2022-11-30T19:47:59.583Z,7.00
2022-11-30T19:50:27.891Z,7.00
2022-11-30T19:52:56.082Z,7.00
2022-11-30T19:55:24.737Z,6.90
2022-11-30T19:57:54.265Z,7.00
2022-11-30T20:00:23.207Z,6.90
2022-11-30T20:02:51.954Z,7.00
2022-11-30T20:05:20.247Z,6.90
2022-11-30T20:07:48.922Z,7.00
2022-11-30T20:10:17.580Z,6.90
2022-11-30T20:12:46.277Z,7.00
2022-11-30T20:15:16.313Z,7.00
2022-11-30T20:17:44.428Z,7.00
2022-11-30T20:20:13.842Z,7.00
2022-11-30T20:22:42.779Z,7.00
2022-11-30T20:25:11.216Z,7.00
2022-11-30T20:27:39.453Z,7.00
2022-11-30T20:30:08.847Z,6.90
2022-11-30T20:32:41.060Z,7.00
2022-11-30T20:35:10.053Z,6.90
2022-11-30T20:37:38.562Z,7.00
2022-11-30T20:40:08.448Z,6.90
2022-11-30T20:42:37.069Z,6.90
2022-11-30T20:45:06.258Z,6.90
2022-11-30T20:47:35.317Z,6.90
2022-11-30T20:50:07.025Z,6.90
2022-11-30T20:52:36.052Z,6.90
2022-11-30T20:55:04.694Z,6.90
2022-11-30T20:57:33.093Z,6.90
2022-11-30T21:00:01.196Z,6.90
2022-11-30T21:02:29.319Z,6.90
2022-11-30T21:04:57.476Z,6.90
2022-11-30T21:07:27.087Z,6.90
2022-11-30T21:09:55.539Z,6.80
2022-11-30T21:12:23.671Z,6.80
2022-11-30T21:14:51.883Z,6.80
2022-11-30T21:17:20.140Z,6.80
2022-11-30T21:19:48.426Z,6.80
2022-11-30T21:22:17.322Z,6.80
2022-11-30T21:24:47.455Z,6.80
2022-11-30T21:27:15.778Z,6.80
2022-11-30T21:29:44.518Z,6.80
2022-11-30T21:32:12.631Z,6.80
2022-11-30T21:34:41.311Z,6.80
2022-11-30T21:37:09.401Z,6.80
2022-11-30T21:39:37.494Z,6.80
2022-11-30T21:42:07.285Z,6.80
2022-11-30T21:44:35.399Z,6.80
2022-11-30T21:47:04.019Z,6.70
2022-11-30T21:49:32.318Z,6.80
2022-11-30T21:52:00.928Z,6.70
2022-11-30T21:54:29.444Z,6.70
2022-11-30T21:56:57.558Z,6.80
2022-11-30T21:59:27.658Z,6.70
2022-11-30T22:01:55.833Z,6.80
2022-11-30T22:04:24.523Z,6.80
2022-11-30T22:06:53.708Z,6.80
2022-11-30T22:09:22.362Z,6.80
2022-11-30T22:11:50.515Z,6.80
2022-11-30T22:14:18.679Z,6.80
2022-11-30T22:16:48.683Z,6.80
2022-11-30T22:19:17.659Z,6.80
2022-11-30T22:21:49.936Z,6.80
2022-11-30T22:24:19.610Z,6.80
2022-11-30T22:26:49.513Z,6.80
2022-11-30T22:29:20.033Z,6.80
2022-11-30T22:31:51.876Z,6.80
2022-11-30T22:34:20.376Z,6.80
2022-11-30T22:36:48.900Z,6.80
2022-11-30T22:39:18.575Z,6.80
2022-11-30T22:41:54.282Z,6.80
2022-11-30T22:44:24.355Z,6.80
2022-11-30T22:46:54.619Z,6.80
2022-11-30T22:49:23.002Z,6.80
2022-11-30T22:51:51.793Z,6.80
2022-11-30T22:54:20.290Z,6.80
2022-11-30T22:56:48.504Z,6.80
2022-11-30T22:59:17.613Z,6.70
2022-11-30T23:01:47.732Z,6.70
2022-11-30T23:04:19.136Z,6.70
2022-11-30T23:06:49.119Z,6.70
2022-11-30T23:09:19.255Z,6.70
2022-11-30T23:11:48.082Z,6.70
2022-11-30T23:14:16.846Z,6.70
2022-11-30T23:16:47.166Z,6.70
2022-11-30T23:19:18.608Z,6.70
2022-11-30T23:21:48.623Z,6.70
2022-11-30T23:24:20.841Z,6.70
2022-11-30T23:26:49.822Z,6.70
2022-11-30T23:29:18.728Z,6.70
2022-11-30T23:31:48.149Z,6.70
2022-11-30T23:34:21.339Z,6.70
2022-11-30T23:36:50.308Z,6.70
2022-11-30T23:39:20.212Z,6.80
2022-11-30T23:41:49.469Z,6.70
2022-11-30T23:44:17.716Z,6.80
2022-11-30T23:46:47.079Z,6.80
2022-11-30T23:49:16.035Z,6.80
2022-11-30T23:51:45.673Z,6.80
2022-11-30T23:54:13.845Z,6.80
2022-11-30T23:56:42.418Z,6.80
2022-11-30T23:59:10.574Z,6.80
